Weather

Heat Advisory

Issued:
4:30 AM MDT on June 22, 2017
Expires:
7:00 PM MDT on June 22, 2017
Clear
Thursday 06/22 0%
Clear
Lots of sunshine. Near record high temperatures. High 103F. Winds NW at 10 to 20 mph.
Partly Cloudy
Friday 06/23 20%
Partly Cloudy
Sunshine and clouds mixed. A stray shower or thunderstorm is possible. High near 100F. Winds N at 10 to 20 mph.
Clear
Saturday 06/24 20%
Clear
Mainly sunny. High 92F. Winds SSE at 10 to 20 mph.
Partly Cloudy
Sunday 06/25 20%
Partly Cloudy
Partly cloudy skies. A stray shower or thunderstorm is possible. High 93F. Winds S at 5 to 10 mph.
Partly Cloudy
Monday 06/26 20%
Partly Cloudy
Partly cloudy skies. A stray shower or thunderstorm is possible. High near 90F. Winds SSE at 5 to 10 mph.

 

 

For a detailed forecast click the banner below.

ballooncastlogo

 

 

Available data for KABQ from the past 2 hours
ALBUQUERQUE, NM
Metar
KABQ 221752Z 22005KT 10SM FEW090 32/07 A3001 RMK AO2 SLP056 TCU DSNT N T03170072 10317 20244 58007

17:52 UTC

Wind: 220° 5kt

Visibility: 10 SM

Sky: FEW 9000 ft

Temp: 32 deg C / 89.6 deg F

Dewpoint: 7 deg C / 44.6 deg F

Pressure: 30.01 inHg

TAF
KABQ 221737Z 2218/2318 28010KT P6SM FEW150 FM222200 31014G23KT P6SM SCT150 FM230300 36007KT P6SM SCT150 FM230800 08007KT P6SM SKC